Time;durP1;ratioP1;P1;durP2;ratioP2;P2;SDS_P1;SDS_P2;PMS_P1;PMS_P2;Temp;Humidity;BMP_temperature;BMP_pressure;BME280_temperature;BME280_humidity;BME280_pressure;Samples;Min_cycle;Max_cycle;Signal;HPM_P1;HPM_P2
2023/06/25 00:01:28;;;;;;;3.33;0.90;;;;;;;23.69;60.38;101423.28;7351530;19;20006;-64
2023/06/25 00:03:57;;;;;;;2.42;1.00;;;;;;;23.70;60.59;101411.47;7354057;19;20029;-64
2023/06/25 00:06:24;;;;;;;3.10;0.70;;;;;;;23.70;61.01;101414.16;7354954;19;20733;-65
2023/06/25 00:08:52;;;;;;;1.38;0.60;;;;;;;23.71;61.56;101420.38;7356043;19;20088;-63
2023/06/25 00:11:20;;;;;;;3.20;0.80;;;;;;;23.71;61.18;101413.13;7356258;19;20015;-65
2023/06/25 00:13:47;;;;;;;2.55;0.88;;;;;;;23.73;63.07;101411.03;7355462;19;20014;-66
2023/06/25 00:16:15;;;;;;;2.50;0.70;;;;;;;23.72;61.99;101403.22;7356404;19;20330;-65
2023/06/25 00:18:42;;;;;;;2.42;0.73;;;;;;;23.70;61.60;101403.41;7357610;19;20041;-64
2023/06/25 00:21:09;;;;;;;1.20;0.60;;;;;;;23.66;60.98;101396.84;7354289;19;20159;-64
2023/06/25 00:23:37;;;;;;;1.30;0.68;;;;;;;23.63;60.81;101401.84;7355183;19;20066;-63
2023/06/25 00:26:04;;;;;;;2.00;0.60;;;;;;;23.59;61.10;101397.97;7352195;19;20320;-65
2023/06/25 00:28:32;;;;;;;3.00;0.85;;;;;;;23.57;61.11;101389.31;7355922;19;20036;-64
2023/06/25 00:30:59;;;;;;;2.13;0.70;;;;;;;23.54;61.20;101395.13;7354806;19;20014;-64
2023/06/25 00:33:26;;;;;;;1.60;0.73;;;;;;;23.52;61.50;101389.97;7363398;19;20018;-63
2023/06/25 00:35:55;;;;;;;1.80;0.80;;;;;;;23.48;61.71;101385.28;7360413;19;20014;-65
2023/06/25 00:38:22;;;;;;;2.70;0.70;;;;;;;23.47;61.93;101384.44;7362866;19;20014;-63
2023/06/25 00:40:50;;;;;;;2.10;0.70;;;;;;;23.44;61.59;101392.94;7358378;19;21147;-64
2023/06/25 00:43:20;;;;;;;1.65;0.68;;;;;;;23.39;62.29;101390.91;7359874;19;20022;-64
2023/06/25 00:45:48;;;;;;;1.88;0.80;;;;;;;23.38;61.64;101381.22;7356746;19;20348;-64
2023/06/25 00:48:16;;;;;;;1.80;0.60;;;;;;;23.33;62.67;101380.25;7358731;19;20056;-65
2023/06/25 00:50:43;;;;;;;2.20;0.80;;;;;;;23.32;62.66;101378.59;7359031;19;20015;-64
2023/06/25 00:53:11;;;;;;;1.65;0.70;;;;;;;23.28;62.48;101380.09;7362989;19;20093;-63
2023/06/25 00:55:38;;;;;;;4.32;0.90;;;;;;;23.24;62.62;101374.34;7361685;19;20214;-64
2023/06/25 00:58:06;;;;;;;1.23;0.60;;;;;;;23.24;62.17;101362.78;7361978;19;20471;-65
2023/06/25 01:00:34;;;;;;;3.17;0.70;;;;;;;23.24;62.12;101360.09;7355774;19;20139;-64
2023/06/25 01:03:07;;;;;;;3.70;0.95;;;;;;;23.20;62.47;101362.41;7361843;19;20718;-64
2023/06/25 01:05:43;;;;;;;1.55;0.85;;;;;;;23.19;62.21;101363.44;7360405;19;20029;-64
2023/06/25 01:08:11;;;;;;;1.77;0.70;;;;;;;23.18;62.06;101356.44;7359592;19;20066;-64
2023/06/25 01:10:39;;;;;;;2.05;0.80;;;;;;;23.16;62.35;101358.50;7360283;19;20018;-64
2023/06/25 01:13:06;;;;;;;2.20;0.70;;;;;;;23.13;63.18;101353.59;7361647;19;20478;-64
2023/06/25 01:15:34;;;;;;;2.85;0.88;;;;;;;23.11;62.64;101347.63;7357527;19;20036;-64
2023/06/25 01:18:02;;;;;;;2.38;0.93;;;;;;;23.08;62.86;101356.13;7360056;19;20695;-64
2023/06/25 01:20:30;;;;;;;4.70;1.33;;;;;;;23.05;62.76;101348.53;7359301;19;20085;-64
2023/06/25 01:22:58;;;;;;;3.38;1.08;;;;;;;23.04;63.04;101338.81;7360758;19;20019;-64
2023/06/25 01:25:25;;;;;;;2.53;1.00;;;;;;;23.04;62.92;101338.81;7358846;19;20002;-64
2023/06/25 01:27:53;;;;;;;2.20;0.70;;;;;;;23.03;63.17;101346.06;7361586;19;20349;-64
2023/06/25 01:30:21;;;;;;;2.08;0.90;;;;;;;23.02;62.61;101341.72;7356106;19;20018;-64
2023/06/25 01:32:48;;;;;;;1.88;0.70;;;;;;;23.02;63.08;101344.41;7359171;19;20010;-64
2023/06/25 01:35:16;;;;;;;2.88;1.05;;;;;;;23.03;62.54;101335.31;7357566;19;20010;-63
2023/06/25 01:37:44;;;;;;;2.10;0.75;;;;;;;23.03;62.40;101331.81;7361504;19;20013;-63
2023/06/25 01:40:12;;;;;;;1.92;0.80;;;;;;;23.02;62.24;101328.28;7359696;19;20042;-63
2023/06/25 01:42:39;;;;;;;1.70;0.85;;;;;;;23.02;62.41;101320.25;7359083;19;20018;-63
2023/06/25 01:45:08;;;;;;;3.58;0.70;;;;;;;22.99;62.26;101318.00;7357694;19;20022;-65
2023/06/25 01:47:37;;;;;;;3.20;0.65;;;;;;;22.96;62.61;101317.63;7359944;19;20016;-65
2023/06/25 01:50:05;;;;;;;0.80;0.50;;;;;;;22.94;61.70;101317.84;7358990;19;20018;-64
2023/06/25 01:52:34;;;;;;;2.05;0.70;;;;;;;22.93;61.21;101326.94;7361447;19;20031;-64
2023/06/25 01:55:01;;;;;;;1.92;0.50;;;;;;;22.95;61.31;101316.81;7355329;19;20030;-64
2023/06/25 01:57:29;;;;;;;1.30;0.47;;;;;;;22.92;61.29;101311.88;7356684;19;20024;-64
2023/06/25 01:59:56;;;;;;;1.17;0.50;;;;;;;22.92;62.42;101313.72;7355578;19;20026;-64
2023/06/25 02:02:23;;;;;;;1.10;0.50;;;;;;;22.89;61.96;101312.34;7356693;19;20084;-64
2023/06/25 02:04:51;;;;;;;1.33;0.40;;;;;;;22.87;61.60;101308.22;7358848;19;20596;-64
2023/06/25 02:07:18;;;;;;;1.40;0.47;;;;;;;22.87;61.33;101316.25;7357202;19;21143;-64
2023/06/25 02:09:46;;;;;;;3.92;0.80;;;;;;;22.84;60.81;101312.19;7359711;19;20022;-63
2023/06/25 02:12:13;;;;;;;1.85;0.60;;;;;;;22.81;60.90;101307.22;7360474;19;20053;-64
2023/06/25 02:14:41;;;;;;;0.90;0.35;;;;;;;22.81;61.39;101311.78;7357322;19;20113;-63
2023/06/25 02:17:08;;;;;;;0.77;0.30;;;;;;;22.80;61.32;101302.94;7357632;19;20022;-63
2023/06/25 02:19:36;;;;;;;1.15;0.45;;;;;;;22.76;61.00;101300.88;7359155;19;20111;-63
2023/06/25 02:22:04;;;;;;;1.85;0.30;;;;;;;22.73;61.14;101295.97;7357598;19;20014;-64
2023/06/25 02:24:32;;;;;;;1.60;0.47;;;;;;;22.69;61.63;101300.13;7355280;19;20026;-64
2023/06/25 02:26:59;;;;;;;1.17;0.40;;;;;;;22.66;61.98;101298.66;7359465;19;20014;-64
2023/06/25 02:29:26;;;;;;;2.13;0.50;;;;;;;22.61;61.83;101293.97;7356375;19;20015;-64
2023/06/25 02:31:54;;;;;;;1.13;0.50;;;;;;;22.57;61.97;101300.00;7356734;19;20021;-64
2023/06/25 02:34:21;;;;;;;1.52;0.50;;;;;;;22.55;62.14;101288.69;7357433;19;20018;-63
2023/06/25 02:36:50;;;;;;;0.85;0.40;;;;;;;22.51;62.09;101293.66;7357923;19;20018;-64
2023/06/25 02:39:18;;;;;;;0.77;0.35;;;;;;;22.49;62.55;101289.56;7357509;19;20026;-64
2023/06/25 02:41:45;;;;;;;1.45;0.40;;;;;;;22.46;62.61;101280.06;7357415;19;20022;-64
2023/06/25 02:44:12;;;;;;;1.45;0.40;;;;;;;22.46;62.09;101276.56;7356736;19;20086;-64
2023/06/25 02:46:40;;;;;;;1.23;0.45;;;;;;;22.40;62.41;101272.91;7355496;19;20049;-63
2023/06/25 02:49:07;;;;;;;0.90;0.40;;;;;;;22.40;62.81;101275.59;7358306;19;20026;-64
2023/06/25 02:51:35;;;;;;;0.82;0.40;;;;;;;22.38;63.00;101277.69;7357137;19;20014;-64
2023/06/25 02:54:03;;;;;;;1.23;0.40;;;;;;;22.38;62.97;101272.31;7356894;19;20020;-63
2023/06/25 02:56:31;;;;;;;1.05;0.45;;;;;;;22.37;63.04;101265.31;7358094;19;20487;-64
2023/06/25 02:58:58;;;;;;;1.52;0.70;;;;;;;22.37;63.21;101257.25;7355016;19;20704;-64
2023/06/25 03:01:25;;;;;;;1.60;0.50;;;;;;;22.34;62.96;101263.06;7354282;19;20022;-64
2023/06/25 03:03:53;;;;;;;2.17;0.70;;;;;;;22.31;62.98;101255.44;7357532;19;20052;-64
2023/06/25 03:06:20;;;;;;;1.52;0.60;;;;;;;22.28;63.15;101253.22;7356979;19;20018;-64
2023/06/25 03:08:48;;;;;;;1.27;0.40;;;;;;;22.26;63.25;101252.59;7356981;19;20018;-64
2023/06/25 03:11:15;;;;;;;2.75;0.55;;;;;;;22.28;62.08;101241.66;7356776;19;20067;-63
2023/06/25 03:13:42;;;;;;;2.95;0.57;;;;;;;22.28;62.27;101239.81;7359168;19;20014;-62
2023/06/25 03:16:09;;;;;;;1.92;0.50;;;;;;;22.29;61.92;101240.63;7353823;19;20365;-64
2023/06/25 03:18:37;;;;;;;1.92;0.50;;;;;;;22.27;62.67;101246.22;7357329;19;20714;-64
2023/06/25 03:21:04;;;;;;;1.50;0.40;;;;;;;22.24;62.30;101246.66;7356083;19;20018;-64
2023/06/25 03:23:32;;;;;;;1.85;0.50;;;;;;;22.22;62.44;101246.03;7359507;19;20015;-62
2023/06/25 03:25:59;;;;;;;1.77;0.40;;;;;;;22.20;62.99;101236.59;7355278;19;20022;-62
2023/06/25 03:28:26;;;;;;;1.98;0.40;;;;;;;22.16;63.37;101228.13;7358450;19;20698;-64
2023/06/25 03:30:54;;;;;;;1.10;0.45;;;;;;;22.16;63.00;101234.31;7353369;19;20029;-64
2023/06/25 03:33:21;;;;;;;0.80;0.30;;;;;;;22.13;62.95;101232.09;7356623;19;20014;-64
2023/06/25 03:35:48;;;;;;;1.08;0.30;;;;;;;22.15;62.66;101239.91;7348814;19;20581;-63
2023/06/25 03:38:16;;;;;;;3.60;0.50;;;;;;;22.14;62.57;101236.44;7357634;19;20055;-64
2023/06/25 03:40:43;;;;;;;1.23;0.40;;;;;;;22.14;61.59;101232.91;7354053;19;20018;-63
2023/06/25 03:43:11;;;;;;;1.02;0.40;;;;;;;22.13;61.42;101233.94;7359783;19;20014;-64
2023/06/25 03:45:38;;;;;;;1.02;0.40;;;;;;;22.14;61.54;101232.91;7352072;19;20051;-63
2023/06/25 03:48:06;;;;;;;1.00;0.47;;;;;;;22.08;61.54;101221.22;7356885;19;20010;-63
2023/06/25 03:50:33;;;;;;;1.52;0.40;;;;;;;22.06;61.43;101227.81;7352812;19;20010;-64
2023/06/25 03:53:01;;;;;;;0.98;0.40;;;;;;;22.04;60.72;101230.72;7356877;19;21091;-63
2023/06/25 03:55:28;;;;;;;2.03;0.47;;;;;;;22.02;60.87;101230.13;7355334;19;20040;-64
2023/06/25 03:57:56;;;;;;;1.00;0.40;;;;;;;21.99;60.89;101233.22;7357012;19;20029;-63
2023/06/25 04:00:24;;;;;;;1.35;0.50;;;;;;;21.97;60.59;101227.28;7348887;19;20074;-66
2023/06/25 04:02:51;;;;;;;2.40;0.45;;;;;;;21.97;60.67;101229.13;7354609;19;20007;-64
2023/06/25 04:05:19;;;;;;;1.10;0.47;;;;;;;21.96;60.93;101220.25;7357098;19;20014;-64
2023/06/25 04:07:46;;;;;;;1.08;0.40;;;;;;;21.96;60.65;101230.16;7363911;19;21841;-64
2023/06/25 04:10:14;;;;;;;1.00;0.40;;;;;;;21.94;60.80;101230.38;7363337;19;20100;-64
2023/06/25 04:12:42;;;;;;;1.92;0.45;;;;;;;21.93;60.86;101211.81;7363182;19;20031;-64
2023/06/25 04:15:09;;;;;;;1.00;0.40;;;;;;;21.93;61.04;101219.84;7359527;19;20010;-63
2023/06/25 04:17:39;;;;;;;3.72;0.60;;;;;;;21.91;60.71;101212.03;7362894;19;20022;-63
2023/06/25 04:20:07;;;;;;;2.22;0.50;;;;;;;21.92;60.72;101208.31;7361421;19;20021;-64
2023/06/25 04:22:34;;;;;;;1.95;0.40;;;;;;;21.94;60.01;101202.78;7362161;19;20171;-63
2023/06/25 04:25:02;;;;;;;1.33;0.40;;;;;;;21.93;60.49;101209.13;7362203;19;20019;-63
2023/06/25 04:27:30;;;;;;;2.13;0.50;;;;;;;21.92;59.84;101197.59;7361752;19;20011;-63
2023/06/25 04:29:57;;;;;;;0.88;0.40;;;;;;;21.94;59.59;101197.41;7360341;19;20046;-63
2023/06/25 04:32:24;;;;;;;1.73;0.50;;;;;;;21.94;59.78;101197.41;7360370;19;20018;-64
2023/06/25 04:34:52;;;;;;;1.42;0.40;;;;;;;21.93;59.48;101193.06;7362349;19;21021;-65
2023/06/25 04:37:19;;;;;;;1.35;0.32;;;;;;;21.93;59.70;101198.41;7362679;19;20101;-62
2023/06/25 04:39:46;;;;;;;1.08;0.40;;;;;;;21.94;60.33;101197.41;7362288;19;20018;-64
2023/06/25 04:42:14;;;;;;;0.90;0.40;;;;;;;21.93;60.10;101199.22;7360604;19;20023;-65
2023/06/25 04:44:42;;;;;;;1.02;0.40;;;;;;;21.94;59.78;101197.41;7358656;19;20113;-64
2023/06/25 04:47:09;;;;;;;0.85;0.40;;;;;;;21.93;59.67;101196.56;7359795;19;20015;-64
2023/06/25 04:49:37;;;;;;;1.75;0.43;;;;;;;21.92;59.72;101188.72;7361409;19;20010;-63
2023/06/25 04:52:04;;;;;;;1.30;0.38;;;;;;;21.88;59.45;101185.66;7361818;19;20212;-64
2023/06/25 04:54:32;;;;;;;0.82;0.40;;;;;;;21.88;59.81;101179.47;7362144;19;20022;-63
2023/06/25 04:56:59;;;;;;;0.73;0.30;;;;;;;21.89;59.61;101170.41;7362369;19;20097;-63
2023/06/25 04:59:27;;;;;;;0.77;0.30;;;;;;;21.93;59.56;101177.78;7360907;19;20030;-64
2023/06/25 05:01:54;;;;;;;0.93;0.40;;;;;;;21.97;59.47;101175.53;7359714;19;20124;-64
2023/06/25 05:04:21;;;;;;;1.00;0.40;;;;;;;21.99;59.61;101171.56;7360694;19;20018;-63
2023/06/25 05:06:48;;;;;;;1.75;0.40;;;;;;;22.02;59.80;101173.00;7357862;19;20018;-64
2023/06/25 05:09:16;;;;;;;1.20;0.40;;;;;;;22.04;59.57;101166.41;7360822;19;21326;-63
2023/06/25 05:11:43;;;;;;;2.00;0.50;;;;;;;22.08;59.60;101164.09;7361942;19;20142;-64
2023/06/25 05:14:10;;;;;;;1.42;0.47;;;;;;;22.10;60.19;101170.03;7360295;19;20015;-63
2023/06/25 05:16:38;;;;;;;1.10;0.50;;;;;;;22.14;60.13;101168.56;7357118;19;20018;-64
2023/06/25 05:19:05;;;;;;;1.27;0.50;;;;;;;22.17;60.14;101168.13;7361094;19;20983;-64
2023/06/25 05:21:32;;;;;;;1.40;0.50;;;;;;;22.19;60.83;101166.06;7359315;19;20025;-64
2023/06/25 05:24:01;;;;;;;3.03;0.50;;;;;;;22.22;60.72;101167.47;7361207;19;20525;-64
2023/06/25 05:26:29;;;;;;;1.00;0.50;;;;;;;22.23;60.68;101155.69;7358470;19;20014;-64
2023/06/25 05:28:57;;;;;;;1.77;0.50;;;;;;;22.26;60.88;101156.06;7360708;19;20017;-64
2023/06/25 05:31:26;;;;;;;1.80;0.60;;;;;;;22.30;61.34;101156.47;7357987;19;20022;-63
2023/06/25 05:33:53;;;;;;;2.05;0.52;;;;;;;22.35;61.43;101159.31;7359912;19;20090;-63
2023/06/25 05:36:21;;;;;;;1.17;0.50;;;;;;;22.39;61.73;101161.31;7358545;19;20018;-64
2023/06/25 05:38:48;;;;;;;1.30;0.50;;;;;;;22.40;62.38;101160.25;7359542;19;20010;-64
2023/06/25 05:41:17;;;;;;;1.58;0.55;;;;;;;22.42;62.10;101163.53;7360007;19;20983;-64
2023/06/25 05:43:44;;;;;;;1.42;0.75;;;;;;;22.47;61.95;101166.38;7359706;19;20888;-64
2023/06/25 05:46:13;;;;;;;2.40;0.80;;;;;;;22.51;63.02;101159.50;7356839;19;20090;-64
2023/06/25 05:48:41;;;;;;;2.08;0.70;;;;;;;22.57;63.00;101158.63;7360201;19;20502;-64
2023/06/25 05:51:08;;;;;;;1.80;0.52;;;;;;;22.62;62.82;101157.94;7356779;19;20015;-64
2023/06/25 05:53:41;;;;;;;1.65;0.73;;;;;;;22.67;62.71;101160.78;7360839;19;20030;-64
2023/06/25 05:56:08;;;;;;;;;;;;;;;22.72;63.06;101166.34;7354303;19;20018;-63
2023/06/25 05:58:36;;;;;;;3.55;1.27;;;;;;;22.75;62.96;101157.03;7360029;19;20033;-64
2023/06/25 06:01:04;;;;;;;3.13;1.15;;;;;;;22.82;62.81;101158.56;7356347;19;20102;-64
2023/06/25 06:03:32;;;;;;;3.33;1.00;;;;;;;22.96;62.71;101157.34;7358025;19;20057;-64
2023/06/25 06:06:00;;;;;;;3.45;0.88;;;;;;;23.08;63.18;101156.59;7358193;19;20026;-64
2023/06/25 06:08:28;;;;;;;2.20;1.05;;;;;;;23.19;62.97;101153.16;7359701;19;20022;-63
2023/06/25 06:10:55;;;;;;;2.25;0.93;;;;;;;23.25;62.98;101149.56;7359101;19;20010;-63
2023/06/25 06:13:22;;;;;;;2.88;0.90;;;;;;;23.41;62.40;101151.59;7360375;19;20368;-64
2023/06/25 06:15:50;;;;;;;4.47;1.10;;;;;;;23.67;61.40;101147.72;7351669;19;20022;-63
2023/06/25 06:18:17;;;;;;;2.28;1.00;;;;;;;23.69;60.70;101135.69;7358985;19;20010;-64
2023/06/25 06:20:44;;;;;;;2.10;0.80;;;;;;;23.70;61.57;101134.63;7359086;19;20030;-64
2023/06/25 06:23:12;;;;;;;2.40;0.98;;;;;;;23.67;61.59;101135.06;7357246;19;20032;-63
2023/06/25 06:25:39;;;;;;;3.53;1.20;;;;;;;23.67;61.56;101135.06;7358273;19;20042;-64
2023/06/25 06:28:06;;;;;;;1.90;0.90;;;;;;;23.67;62.19;101128.91;7357915;19;20048;-64
2023/06/25 06:30:34;;;;;;;3.50;0.90;;;;;;;23.69;63.20;101127.63;7354929;19;20114;-63
2023/06/25 06:33:01;;;;;;;2.25;0.95;;;;;;;23.76;62.65;101127.50;7358024;19;20030;-63
2023/06/25 06:35:28;;;;;;;1.88;1.05;;;;;;;23.90;62.22;101117.34;7357759;19;20018;-64
2023/06/25 06:37:56;;;;;;;5.95;1.20;;;;;;;23.99;62.59;101116.75;7358693;19;20029;-64
2023/06/25 06:40:24;;;;;;;2.38;1.10;;;;;;;24.02;62.27;101119.00;7358149;19;20017;-64
2023/06/25 06:42:52;;;;;;;2.58;1.20;;;;;;;24.06;62.02;101108.56;7357344;19;20022;-63
2023/06/25 06:45:19;;;;;;;3.42;0.95;;;;;;;24.17;62.24;101110.47;7355476;19;20019;-64
2023/06/25 06:47:49;;;;;;;2.40;1.23;;;;;;;24.20;61.26;101105.44;7358029;19;20010;-64
2023/06/25 06:50:16;;;;;;;3.33;1.20;;;;;;;24.21;62.02;101108.94;7356950;19;20026;-64
2023/06/25 06:52:45;;;;;;;5.55;1.25;;;;;;;24.21;62.24;101109.78;7358004;19;20022;-63
2023/06/25 06:55:12;;;;;;;3.40;1.08;;;;;;;24.21;62.84;101104.38;7356537;19;20018;-64
2023/06/25 06:57:40;;;;;;;3.30;1.23;;;;;;;24.21;62.07;101103.56;7359055;19;20032;-63
2023/06/25 07:00:09;;;;;;;4.15;1.08;;;;;;;24.24;62.05;101103.91;7354420;19;20986;-63
2023/06/25 07:02:36;;;;;;;2.47;1.40;;;;;;;24.23;61.33;101102.25;7356687;19;20007;-63
2023/06/25 07:05:04;;;;;;;2.63;1.20;;;;;;;24.27;60.92;101103.44;7358329;19;20010;-64
2023/06/25 07:07:32;;;;;;;3.08;1.40;;;;;;;24.31;61.25;101094.91;7357213;19;20015;-64
2023/06/25 07:09:59;;;;;;;2.75;1.40;;;;;;;24.35;60.52;101104.13;7357076;19;20034;-64
2023/06/25 07:12:27;;;;;;;3.50;1.20;;;;;;;24.38;59.68;101093.69;7357233;19;20018;-64
2023/06/25 07:14:54;;;;;;;3.50;1.50;;;;;;;24.45;59.50;101097.09;7353921;19;20392;-65
2023/06/25 07:17:21;;;;;;;5.05;1.75;;;;;;;24.50;59.17;101096.38;7356315;19;20106;-64
2023/06/25 07:19:49;;;;;;;3.05;1.30;;;;;;;24.55;58.87;101097.28;7355965;19;20133;-65
2023/06/25 07:22:16;;;;;;;3.38;1.33;;;;;;;24.60;58.86;101097.41;7357148;19;20022;-64
2023/06/25 07:24:44;;;;;;;2.13;1.40;;;;;;;24.66;59.52;101093.75;7353194;19;20113;-63
2023/06/25 07:27:11;;;;;;;6.05;1.50;;;;;;;24.70;59.48;101097.59;7358054;19;20010;-64
2023/06/25 07:29:39;;;;;;;1.75;1.10;;;;;;;24.75;59.73;101091.50;7351383;19;20094;-64
2023/06/25 07:32:07;;;;;;;3.28;1.38;;;;;;;24.84;59.96;101086.56;7356713;19;20055;-63
2023/06/25 07:34:35;;;;;;;2.15;1.30;;;;;;;24.94;58.98;101086.78;7355188;19;20029;-62
2023/06/25 07:37:03;;;;;;;4.72;1.38;;;;;;;25.14;58.62;101089.84;7357028;19;20146;-63
2023/06/25 07:39:31;;;;;;;4.10;1.52;;;;;;;25.52;56.70;101081.03;7352589;19;20975;-67
2023/06/25 07:41:59;;;;;;;2.63;1.60;;;;;;;25.85;56.06;101083.75;7354374;19;20030;-64
2023/06/25 07:44:27;;;;;;;3.40;1.45;;;;;;;26.58;54.25;101092.56;7349745;19;20020;-64
2023/06/25 07:46:57;;;;;;;2.42;1.30;;;;;;;28.11;51.55;101082.88;7349709;19;20018;-65
2023/06/25 07:49:24;;;;;;;3.20;1.80;;;;;;;28.90;48.47;101088.13;7354357;19;20586;-65
2023/06/25 07:51:53;;;;;;;4.05;1.63;;;;;;;29.00;48.26;101079.19;7357693;19;20022;-64
2023/06/25 07:54:21;;;;;;;2.83;1.30;;;;;;;28.75;48.35;101086.16;7357561;19;20086;-63
2023/06/25 07:56:48;;;;;;;4.00;1.60;;;;;;;28.43;48.03;101078.19;7358451;19;20078;-63
2023/06/25 07:59:16;;;;;;;3.55;1.27;;;;;;;28.17;50.07;101079.16;7353366;19;20692;-64
2023/06/25 08:01:44;;;;;;;4.13;1.30;;;;;;;28.04;49.77;101069.56;7355183;19;20048;-64
2023/06/25 08:04:12;;;;;;;2.67;1.50;;;;;;;27.82;49.93;101065.38;7352596;19;20024;-64
2023/06/25 08:06:40;;;;;;;1.85;1.10;;;;;;;27.57;50.88;101058.75;7357819;19;20018;-64
2023/06/25 08:09:07;;;;;;;4.35;1.40;;;;;;;27.37;51.00;101052.34;7355576;19;21807;-64
2023/06/25 08:11:36;;;;;;;2.13;1.20;;;;;;;27.16;51.62;101056.75;7355702;19;20137;-64
2023/06/25 08:14:03;;;;;;;4.97;1.77;;;;;;;26.97;51.24;101066.31;7353898;19;20022;-64
2023/06/25 08:16:30;;;;;;;5.03;1.70;;;;;;;26.86;52.35;101053.72;7354755;19;20489;-64
2023/06/25 08:18:58;;;;;;;2.63;1.20;;;;;;;26.93;52.29;101052.47;7355018;19;20018;-64
2023/06/25 08:21:26;;;;;;;4.03;1.77;;;;;;;27.17;52.55;101048.38;7315200;19;20934;-65
2023/06/25 08:23:53;;;;;;;3.70;1.60;;;;;;;27.32;51.30;101046.88;7349011;19;20550;-63
2023/06/25 08:26:21;;;;;;;1.92;1.10;;;;;;;27.27;51.05;101041.44;7342675;19;20021;-64
2023/06/25 08:28:48;;;;;;;5.80;1.88;;;;;;;27.26;50.97;101035.22;7347764;19;20014;-63
2023/06/25 08:31:16;;;;;;;4.28;1.63;;;;;;;27.38;51.17;101038.53;7348283;19;20170;-65
2023/06/25 08:33:43;;;;;;;4.60;1.67;;;;;;;27.81;49.71;101040.22;7351841;19;20065;-63
2023/06/25 08:36:11;;;;;;;5.05;1.65;;;;;;;28.39;48.55;101041.88;7351257;19;20143;-64
2023/06/25 08:38:38;;;;;;;10.88;1.98;;;;;;;28.73;47.44;101036.88;7353239;19;20019;-64
2023/06/25 08:41:06;;;;;;;7.65;1.23;;;;;;;28.71;47.46;101033.56;7352106;19;21157;-63
2023/06/25 08:43:33;;;;;;;5.88;1.63;;;;;;;28.46;48.08;101037.03;7350513;19;21444;-65
2023/06/25 08:46:02;;;;;;;2.10;1.23;;;;;;;28.23;49.31;101034.78;7347925;19;21096;-63
2023/06/25 08:48:30;;;;;;;5.70;1.50;;;;;;;28.05;49.11;101025.19;7352131;19;20498;-63
2023/06/25 08:51:03;;;;;;;5.50;2.50;;;;;;;27.87;49.52;101024.84;7349339;19;20015;-65
2023/06/25 08:53:31;;;;;;;7.00;1.65;;;;;;;27.78;50.37;101024.53;7359475;19;20015;-63
2023/06/25 08:56:00;;;;;;;6.43;1.50;;;;;;;27.82;50.37;101025.63;7357600;19;20030;-64
2023/06/25 08:58:29;;;;;;;5.05;1.58;;;;;;;27.83;50.63;101012.91;7360367;19;20006;-63
2023/06/25 09:00:56;;;;;;;6.43;1.60;;;;;;;27.73;51.08;101007.44;7343677;19;20022;-63
2023/06/25 09:03:23;;;;;;;15.15;2.20;;;;;;;27.63;50.90;101009.00;7357950;19;20025;-63
2023/06/25 09:05:53;;;;;;;3.75;1.45;;;;;;;27.51;51.01;101008.38;7356227;19;20021;-63
2023/06/25 09:08:23;;;;;;;5.85;1.65;;;;;;;27.52;51.17;101001.09;7359773;19;20010;-64
2023/06/25 09:10:52;;;;;;;3.92;1.63;;;;;;;27.61;51.17;101004.94;7353524;19;20014;-63
2023/06/25 09:13:22;;;;;;;3.33;1.80;;;;;;;27.70;50.48;101000.66;7361077;19;20055;-64
2023/06/25 09:15:50;;;;;;;2.83;1.33;;;;;;;27.72;50.42;100992.28;7353679;19;20027;-64
2023/06/25 09:18:21;;;;;;;3.55;1.98;;;;;;;27.68;50.26;100991.19;7323041;19;20014;-63
2023/06/25 09:20:49;;;;;;;3.25;1.52;;;;;;;27.71;50.19;100987.94;7346652;19;20110;-63
2023/06/25 09:23:23;;;;;;;2.25;1.20;;;;;;;27.76;50.35;100982.56;7347186;19;20018;-65
2023/06/25 09:25:52;;;;;;;7.50;1.55;;;;;;;27.76;50.45;100983.38;7351564;19;20019;-64
2023/06/25 09:28:20;;;;;;;3.78;1.48;;;;;;;27.74;50.28;100982.81;7350573;19;21002;-65
2023/06/25 09:30:47;;;;;;;2.88;1.30;;;;;;;27.73;50.13;100969.56;7350451;19;20015;-64
2023/06/25 09:33:16;;;;;;;5.35;2.03;;;;;;;27.75;50.07;100976.34;7349225;19;20015;-64
2023/06/25 09:35:43;;;;;;;4.75;1.75;;;;;;;27.79;49.22;100969.31;7353938;19;20167;-62
2023/06/25 09:38:10;;;;;;;8.15;2.78;;;;;;;27.83;48.92;100967.72;7358256;19;20365;-64
2023/06/25 09:40:41;;;;;;;14.15;4.55;;;;;;;27.88;48.94;100962.34;7357216;19;20024;-64
2023/06/25 09:43:09;;;;;;;13.82;2.70;;;;;;;27.93;48.93;100966.97;7356394;19;20030;-64
2023/06/25 09:45:37;;;;;;;13.40;3.58;;;;;;;27.99;49.99;100960.47;7353410;19;20023;-64
2023/06/25 09:48:08;;;;;;;5.35;2.47;;;;;;;28.01;49.24;100969.16;7356448;19;20025;-64
2023/06/25 09:50:42;;;;;;;10.80;4.65;;;;;;;28.03;49.40;100961.59;7352495;19;20114;-63
2023/06/25 09:53:18;;;;;;;6.60;2.63;;;;;;;28.07;48.32;100970.81;7353170;19;20055;-64
2023/06/25 09:55:46;;;;;;;5.13;2.40;;;;;;;28.14;48.72;100968.66;7336506;19;20553;-63
2023/06/25 09:58:15;;;;;;;7.47;3.47;;;;;;;28.21;48.72;100963.84;7362400;19;20014;-65
2023/06/25 10:00:45;;;;;;;4.15;1.73;;;;;;;28.29;48.37;100965.22;7356484;19;20827;-63
2023/06/25 10:03:15;;;;;;;6.30;2.35;;;;;;;28.39;48.26;100965.25;7357655;19;21728;-64
2023/06/25 10:05:43;;;;;;;5.40;2.45;;;;;;;28.45;47.33;100959.56;7357200;19;20026;-64
2023/06/25 10:08:12;;;;;;;4.65;2.20;;;;;;;28.52;47.03;100953.06;7357960;19;20018;-63
2023/06/25 10:10:39;;;;;;;6.32;1.77;;;;;;;28.57;46.53;100948.47;7357097;19;20137;-64
2023/06/25 10:13:08;;;;;;;6.00;2.00;;;;;;;28.60;47.04;100947.13;7357366;19;20018;-64
2023/06/25 10:15:36;;;;;;;6.90;2.35;;;;;;;28.66;47.01;100941.44;7356299;19;20595;-64
2023/06/25 10:18:06;;;;;;;5.68;2.85;;;;;;;28.76;47.17;100943.38;7359314;19;20017;-64
2023/06/25 10:20:36;;;;;;;3.92;2.25;;;;;;;28.81;46.64;100941.47;7361765;19;20051;-63
2023/06/25 10:23:07;;;;;;;4.32;1.75;;;;;;;28.87;46.05;100947.72;7360545;19;20022;-64
2023/06/25 10:25:37;;;;;;;3.88;1.60;;;;;;;28.96;46.05;100950.69;7361562;19;20154;-64
2023/06/25 10:28:06;;;;;;;5.97;2.15;;;;;;;29.01;45.49;100943.38;7358028;19;20040;-64
2023/06/25 10:30:38;;;;;;;3.55;1.55;;;;;;;29.05;45.49;100944.47;7358231;19;20014;-65
2023/06/25 10:33:06;;;;;;;3.08;1.60;;;;;;;29.13;45.23;100940.38;7356168;19;21798;-63
2023/06/25 10:35:38;;;;;;;4.20;2.10;;;;;;;29.16;44.88;100939.81;7359303;19;20022;-64
2023/06/25 10:38:07;;;;;;;16.50;3.05;;;;;;;29.16;44.35;100929.78;7356943;19;20017;-63
2023/06/25 10:40:37;;;;;;;6.40;2.13;;;;;;;29.17;43.76;100927.91;7355530;19;20126;-64
2023/06/25 10:43:04;;;;;;;4.03;1.75;;;;;;;29.21;44.18;100932.50;7357382;19;21995;-62
2023/06/25 10:45:33;;;;;;;5.30;1.85;;;;;;;29.20;44.10;100928.19;7356514;19;20089;-66
2023/06/25 10:48:03;;;;;;;7.82;2.00;;;;;;;29.19;44.53;100920.31;7356790;19;20023;-65
2023/06/25 10:50:32;;;;;;;2.95;1.15;;;;;;;29.20;44.48;100917.34;7356835;19;20089;-65
2023/06/25 10:53:01;;;;;;;13.63;3.08;;;;;;;29.19;44.09;100907.56;7354280;19;20045;-64
2023/06/25 10:55:29;;;;;;;8.82;2.47;;;;;;;29.19;44.25;100910.28;7358412;19;20594;-64
2023/06/25 10:57:56;;;;;;;8.45;1.83;;;;;;;29.19;44.23;100912.19;7353029;19;20101;-64
2023/06/25 11:00:27;;;;;;;10.77;2.35;;;;;;;29.20;43.82;100902.97;7354306;19;20463;-64
2023/06/25 11:02:57;;;;;;;4.93;1.50;;;;;;;29.20;44.12;100908.38;7355917;19;20018;-64
2023/06/25 11:05:30;;;;;;;9.88;2.38;;;;;;;29.23;44.18;100910.53;7357721;19;20011;-63
2023/06/25 11:07:59;;;;;;;5.80;1.98;;;;;;;29.23;43.73;100899.69;7357253;19;20025;-64
2023/06/25 11:10:26;;;;;;;3.97;1.33;;;;;;;29.26;43.90;100905.38;7357668;19;20011;-64
2023/06/25 11:12:54;;;;;;;6.20;1.75;;;;;;;29.32;43.66;100898.06;7356831;19;21763;-64
2023/06/25 11:15:21;;;;;;;3.75;1.30;;;;;;;29.35;44.18;100896.72;7353023;19;20041;-64
2023/06/25 11:17:52;;;;;;;4.03;1.50;;;;;;;29.36;43.95;100890.22;7353348;19;20639;-64
2023/06/25 11:20:23;;;;;;;2.90;1.55;;;;;;;29.41;44.42;100893.69;7358126;19;20053;-64
2023/06/25 11:22:51;;;;;;;6.78;1.48;;;;;;;29.43;44.07;100894.25;7357146;19;21790;-65
2023/06/25 11:25:20;;;;;;;4.05;1.80;;;;;;;29.44;44.56;100893.16;7356399;19;20011;-63
2023/06/25 11:27:48;;;;;;;9.40;1.90;;;;;;;29.43;43.83;100888.00;7355589;19;20469;-63